Flight Track Log - Related Links

Times and Time Zones

All times are in EDT time to prevent confusion due to time zone crossing. See the N23607 flight status page for this flight to view local times or setup timezone preferences in your user account.

Time Position Orientation Groundspeed Altitude Reporting Facility
EDT Latitude Longitude Course Direction KTS MPH feet Rate Location/Type
Fri 10:45:18 AM 40.1000 -85.5833 143° Southeast 100 115 1,700  Level Indianapolis TRACON
Fri 10:45:48 AM 40.0833 -85.5667 143° Southeast 106 122 2,400 1,200 Climbing Indianapolis TRACON
Fri 10:46:48 AM 40.0667 -85.5333 123° Southeast 112 129 3,500 1,084 Climbing Indianapolis TRACON
Fri 10:47:11 AM 40.0692 -85.5261 66° East 105 121 3,900 353 Climbing Chicago Center
Fri 10:48:13 AM 40.0869 -85.4806 63° Northeast 133 153 4,000 194 Climbing Chicago Center
Fri 10:49:15 AM 40.1108 -85.4347 56° Northeast 148 170 4,300 339 Climbing Chicago Center
Fri 10:50:17 AM 40.1392 -85.3994 44° Northeast 145 167 4,700 459 Climbing Chicago Center
Fri 10:52:18 AM 40.2156 -85.3906 North 138 159 5,700 525 Climbing Indianapolis Center
Fri 10:53:20 AM 40.2433 -85.3625 38° Northeast 133 153 6,300 537 Climbing Indianapolis Center
Fri 10:54:21 AM 40.2586 -85.3203 65° Northeast 127 146 6,800 341 Climbing Indianapolis Center
Fri 10:55:23 AM 40.2781 -85.2747 61° Northeast 139 160 7,000 145 Climbing Indianapolis Center
Fri 10:56:25 AM 40.3075 -85.2150 57° Northeast 162 186 7,100 48 Climbing Indianapolis Center
Fri 10:57:27 AM 40.3328 -85.1639 57° Northeast 166 191 7,100  Level Indianapolis Center
Fri 10:58:29 AM 40.3572 -85.1111 59° Northeast 167 192 7,100  Level Indianapolis Center
Fri 10:59:30 AM 40.3814 -85.0597 58° Northeast 166 191 7,100  Level Indianapolis Center
Fri 11:00:32 AM 40.4061 -85.0064 59° Northeast 168 193 7,100  Level Indianapolis Center
Fri 11:01:34 AM 40.4306 -84.9550 58° Northeast 167 192 7,100  Level Indianapolis Center
Fri 11:02:36 AM 40.4539 -84.9028 60° Northeast 168 193 7,100  Level Indianapolis Center
Fri 11:03:38 AM 40.4814 -84.8417 59° Northeast 166 191 7,100  Level Indianapolis Center
Fri 11:04:40 AM 40.5050 -84.7894 59° Northeast 166 191 7,100  Level Indianapolis Center
Fri 11:05:41 AM 40.5294 -84.7353 59° Northeast 168 193 7,100  Level Indianapolis Center
Fri 11:06:43 AM 40.5531 -84.6831 59° Northeast 167 192 7,100  Level Indianapolis Center
Fri 11:07:45 AM 40.5775 -84.6300 59° Northeast 167 192 7,100  Level Indianapolis Center
Fri 11:08:47 AM 40.6022 -84.5758 59° Northeast 168 193 7,100  Level Indianapolis Center
Fri 11:09:49 AM 40.6264 -84.5244 58° Northeast 168 193 7,100  Level Indianapolis Center
Fri 11:10:51 AM 40.6494 -84.4708 60° Northeast 167 192 7,100  Level Indianapolis Center
Fri 11:11:52 AM 40.6736 -84.4181 59° Northeast 167 192 7,100  Level Indianapolis Center
Fri 11:12:54 AM 40.7017 -84.3544 60° Northeast 168 193 7,100  Level Indianapolis Center
Fri 11:13:56 AM 40.7258 -84.3014 59° Northeast 168 193 7,100  Level Indianapolis Center
Fri 11:14:58 AM 40.7494 -84.2475 60° Northeast 168 193 7,100  Level Indianapolis Center
Fri 11:16:00 AM 40.7725 -84.1942 60° Northeast 167 192 7,100  Level Indianapolis Center
Fri 11:17:01 AM 40.7961 -84.1394 60° Northeast 168 193 7,100  Level Indianapolis Center
Fri 11:18:03 AM 40.8211 -84.0861 58° Northeast 169 194 7,100  Level Indianapolis Center
Fri 11:19:05 AM 40.8450 -84.0311 60° Northeast 169 194 7,100  Level Indianapolis Center
Fri 11:20:07 AM 40.8700 -83.9761 59° Northeast 171 197 7,100  Level Indianapolis Center
Fri 11:21:09 AM 40.8936 -83.9206 61° Northeast 172 198 7,100  Level Indianapolis Center
Fri 11:22:11 AM 40.9231 -83.8578 58° Northeast 171 197 7,100  Level Indianapolis Center
Fri 11:23:12 AM 40.9464 -83.8028 61° Northeast 170 196 7,100  Level Indianapolis Center
Fri 11:24:14 AM 40.9700 -83.7467 61° Northeast 172 198 7,100  Level Indianapolis Center
Fri 11:25:16 AM 40.9950 -83.6908 59° Northeast 173 199 7,100  Level Indianapolis Center
Fri 11:26:18 AM 41.0192 -83.6369 59° Northeast 171 197 7,100  Level Indianapolis Center
Fri 11:27:20 AM 41.0433 -83.5822 60° Northeast 170 196 7,100  Level Indianapolis Center
Fri 11:28:22 AM 41.0678 -83.5258 60° Northeast 172 198 7,100  Level Indianapolis Center

Login

Don't have an account? Register now (free) for customized features, flight alerts, and more!